createdAt,value
2023-02-19T00:01:46.906Z,101783.44
2023-02-19T00:04:16.779Z,101773.66
2023-02-19T00:06:44.871Z,101773.66
2023-02-19T00:09:13.085Z,101779.06
2023-02-19T00:11:40.512Z,101772.84
2023-02-19T00:14:07.883Z,101776.38
2023-02-19T00:16:37.891Z,101770.97
2023-02-19T00:19:07.625Z,101776.63
2023-02-19T00:21:35.092Z,101780.72
2023-02-19T00:24:04.490Z,101784.50
2023-02-19T00:26:31.627Z,101789.91
2023-02-19T00:28:58.730Z,101788.25
2023-02-19T00:31:32.957Z,101797.44
2023-02-19T00:34:02.160Z,101797.44
2023-02-19T00:36:29.574Z,101790.97
2023-02-19T00:38:56.249Z,101781.19
2023-02-19T00:41:24.104Z,101786.63
2023-02-19T00:43:56.793Z,101793.69
2023-02-19T00:46:44.881Z,101792.63
2023-02-19T00:49:22.393Z,101785.56
2023-02-19T00:51:50.335Z,101795.31
2023-02-19T00:54:22.374Z,101796.97
2023-02-19T00:56:49.951Z,101786.63
2023-02-19T00:59:16.387Z,101795.81
2023-02-19T01:01:44.795Z,101795.00
2023-02-19T01:04:11.685Z,101797.94
2023-02-19T01:06:41.759Z,101800.41
2023-02-19T01:09:09.310Z,101802.53
2023-02-19T01:11:35.952Z,101800.63
2023-02-19T01:14:03.579Z,101802.53
2023-02-19T01:16:31.140Z,101811.72
2023-02-19T01:18:59.988Z,101810.88
2023-02-19T01:21:32.030Z,101812.53
2023-02-19T01:24:00.413Z,101814.16
2023-02-19T01:26:30.302Z,101816.28
2023-02-19T01:28:57.594Z,101816.28
2023-02-19T01:31:24.688Z,101820.06
2023-02-19T01:33:56.507Z,101825.47
2023-02-19T01:36:24.785Z,101823.84
2023-02-19T01:38:52.312Z,101825.72
2023-02-19T01:41:23.200Z,101824.31
2023-02-19T01:44:08.080Z,101828.06
2023-02-19T01:46:40.338Z,101831.84
2023-02-19T01:49:15.834Z,101819.38
2023-02-19T01:51:47.405Z,101825.84
2023-02-19T01:54:17.554Z,101835.84
2023-02-19T01:56:45.983Z,101830.66
2023-02-19T01:59:13.029Z,101838.19
2023-02-19T02:01:41.020Z,101828.44
2023-02-19T02:04:11.825Z,101829.28
2023-02-19T02:06:56.385Z,101833.03
2023-02-19T02:09:46.775Z,101828.69
2023-02-19T02:12:14.034Z,101835.97
2023-02-19T02:14:43.928Z,101837.03
2023-02-19T02:17:25.938Z,101830.81
2023-02-19T02:20:09.484Z,101828.31
2023-02-19T02:22:43.030Z,101835.03
2023-02-19T02:25:51.112Z,101837.50
2023-02-19T02:28:35.678Z,101836.69
2023-02-19T02:31:17.343Z,101840.44
2023-02-19T02:33:57.746Z,101837.16
2023-02-19T02:36:31.124Z,101838.44
2023-02-19T02:38:58.386Z,101842.19
2023-02-19T02:41:29.939Z,101842.19
2023-02-19T02:43:56.303Z,101849.50
2023-02-19T02:46:30.262Z,101842.44
2023-02-19T02:49:05.942Z,101848.69
2023-02-19T02:51:43.943Z,101854.69
2023-02-19T02:54:47.322Z,101849.25
2023-02-19T02:57:15.177Z,101852.22
2023-02-19T02:59:43.521Z,101858.44
2023-02-19T03:02:20.197Z,101856.78
2023-02-19T03:05:30.971Z,101859.75
2023-02-19T03:08:15.339Z,101858.91
2023-02-19T03:10:46.467Z,101858.91
2023-02-19T03:13:43.897Z,101859.97
2023-02-19T03:16:49.669Z,101865.38
2023-02-19T03:19:27.347Z,101865.38
2023-02-19T03:22:29.840Z,101866.22
2023-02-19T03:25:22.733Z,101868.09
2023-02-19T03:28:04.179Z,101871.84
2023-02-19T03:30:49.323Z,101872.69
2023-02-19T03:33:33.911Z,101870.78
2023-02-19T03:36:08.375Z,101880.81
2023-02-19T03:38:44.502Z,101888.09
2023-02-19T03:41:29.243Z,101879.97
2023-02-19T03:44:17.785Z,101888.09
2023-02-19T03:47:23.637Z,101888.94
2023-02-19T03:49:56.074Z,101893.50
2023-02-19T03:53:01.968Z,101895.41
2023-02-19T03:55:56.649Z,101898.91
2023-02-19T03:58:40.289Z,101899.97
2023-02-19T04:01:16.877Z,101901.03
2023-02-19T04:04:07.296Z,101911.84
2023-02-19T04:06:37.229Z,101908.34
2023-02-19T04:09:08.901Z,101914.56
2023-02-19T04:11:38.638Z,101913.97
2023-02-19T04:14:35.462Z,101924.78
2023-02-19T04:17:08.732Z,101925.25
2023-02-19T04:19:42.587Z,101932.78
2023-02-19T04:22:12.020Z,101929.84
2023-02-19T04:24:47.859Z,101939.84
2023-02-19T04:27:14.714Z,101932.78
2023-02-19T04:29:41.340Z,101931.97
2023-02-19T04:32:10.723Z,101943.59
2023-02-19T04:34:39.876Z,101944.44
2023-02-19T04:37:06.954Z,101949.25
2023-02-19T04:39:37.586Z,101961.75
2023-02-19T04:42:10.760Z,101958.19
2023-02-19T04:44:38.247Z,101963.59
2023-02-19T04:47:06.835Z,101968.19
2023-02-19T04:49:34.288Z,101974.44
2023-02-19T04:52:00.717Z,101976.56
2023-02-19T04:54:34.038Z,101971.16
2023-02-19T04:57:00.406Z,101987.38
2023-02-19T04:59:26.779Z,101987.38
2023-02-19T05:01:53.180Z,101991.75
2023-02-19T05:04:19.713Z,101991.16
2023-02-19T05:06:48.150Z,101991.16
2023-02-19T05:09:16.694Z,101996.56
2023-02-19T05:11:43.066Z,101995.50
2023-02-19T05:14:09.410Z,101995.72
2023-02-19T05:16:35.889Z,101997.63
2023-02-19T05:19:02.265Z,102001.97
2023-02-19T05:21:28.711Z,102007.38
2023-02-19T05:23:57.161Z,102018.22
2023-02-19T05:26:24.299Z,102021.13
2023-02-19T05:28:59.828Z,102014.06
2023-02-19T05:31:26.410Z,102022.19
2023-02-19T05:33:56.978Z,102027.84
2023-02-19T05:36:23.739Z,102027.84
2023-02-19T05:38:57.450Z,102022.63
2023-02-19T05:41:29.380Z,102027.25
2023-02-19T05:43:56.702Z,102027.25
2023-02-19T05:46:26.746Z,102014.97
2023-02-19T05:48:53.830Z,102018.53
2023-02-19T05:51:23.069Z,102023.94
2023-02-19T05:53:50.887Z,102025.00
2023-02-19T05:56:46.134Z,102025.81
2023-02-19T05:59:24.194Z,102034.16
2023-02-19T06:01:53.184Z,102038.72
2023-02-19T06:04:20.432Z,102035.22
2023-02-19T06:06:50.434Z,102043.34
2023-02-19T06:09:17.935Z,102040.63
2023-02-19T06:11:45.530Z,102043.34
2023-02-19T06:14:15.043Z,102045.44
2023-02-19T06:16:41.885Z,102060.63
2023-02-19T06:19:08.641Z,102064.97
2023-02-19T06:21:38.118Z,102065.44
2023-02-19T06:24:06.378Z,102074.59
2023-02-19T06:26:33.237Z,102080.00
2023-02-19T06:28:59.848Z,102092.47
2023-02-19T06:31:26.322Z,102092.47
2023-02-19T06:33:59.710Z,102093.75
2023-02-19T06:36:26.181Z,102096.69
2023-02-19T06:38:54.644Z,102096.09
2023-02-19T06:41:21.006Z,102094.19
2023-02-19T06:43:47.477Z,102104.22
2023-02-19T06:46:14.354Z,102100.91
2023-02-19T06:48:43.573Z,102100.91
2023-02-19T06:51:13.190Z,102103.00
2023-02-19T06:53:39.630Z,102109.22
2023-02-19T06:56:22.214Z,102113.81
2023-02-19T06:58:59.995Z,102115.09
2023-02-19T07:01:27.291Z,102112.38
2023-02-19T07:03:53.971Z,102125.91
2023-02-19T07:06:27.603Z,102133.81
2023-02-19T07:08:55.757Z,102134.88
2023-02-19T07:11:23.091Z,102142.97
2023-02-19T07:13:55.598Z,102145.69
2023-02-19T07:16:22.748Z,102147.53
2023-02-19T07:18:49.334Z,102146.72
2023-02-19T07:21:17.030Z,102160.25
2023-02-19T07:23:44.240Z,102164.63
2023-02-19T07:26:14.388Z,102171.88
2023-02-19T07:28:41.593Z,102178.13
2023-02-19T07:31:08.512Z,102177.53
2023-02-19T07:33:34.980Z,102179.19
2023-02-19T07:36:01.373Z,102175.44
2023-02-19T07:38:29.024Z,102187.91
2023-02-19T07:41:05.572Z,102189.56
2023-02-19T07:43:35.601Z,102190.63
2023-02-19T07:46:12.670Z,102188.72
2023-02-19T07:48:40.765Z,102180.41
2023-02-19T07:51:10.971Z,102194.72
2023-02-19T07:53:43.893Z,102206.41
2023-02-19T07:56:11.672Z,102207.00
2023-02-19T07:58:38.581Z,102207.00
2023-02-19T08:01:15.314Z,102212.41
2023-02-19T08:03:42.281Z,102211.34
2023-02-19T08:06:11.132Z,102208.66
2023-02-19T08:08:38.858Z,102222.78
2023-02-19T08:11:24.939Z,102221.13
2023-02-19T08:13:52.452Z,102228.19
2023-02-19T08:16:29.565Z,102231.50
2023-02-19T08:19:04.579Z,102226.09
2023-02-19T08:21:34.381Z,102237.53
2023-02-19T08:24:03.108Z,102242.94
2023-02-19T08:26:29.483Z,102241.88
2023-02-19T08:28:55.861Z,102248.09
2023-02-19T08:31:22.466Z,102252.69
2023-02-19T08:33:51.879Z,102258.13
2023-02-19T08:36:18.507Z,102262.47
2023-02-19T08:38:44.926Z,102265.19
2023-02-19T08:41:14.159Z,102261.88
2023-02-19T08:43:41.979Z,102272.69
2023-02-19T08:46:12.009Z,102271.03
2023-02-19T08:48:39.499Z,102284.31
2023-02-19T08:51:12.322Z,102282.22
2023-02-19T08:53:46.114Z,102273.91
2023-02-19T08:56:23.756Z,102278.25
2023-02-19T08:58:52.350Z,102268.50
2023-02-19T09:01:26.994Z,102273.66
2023-02-19T09:03:53.471Z,102278.63
2023-02-19T09:06:20.758Z,102287.16
2023-02-19T09:08:47.221Z,102281.72
2023-02-19T09:11:14.522Z,102275.63
2023-02-19T09:13:41.347Z,102285.16
2023-02-19T09:16:07.962Z,102288.03
2023-02-19T09:18:51.718Z,102303.63
2023-02-19T09:21:19.258Z,102306.09
2023-02-19T09:24:08.632Z,102300.69
2023-02-19T09:26:43.189Z,102301.06
2023-02-19T09:29:16.887Z,102304.84
2023-02-19T09:31:59.347Z,102321.06
2023-02-19T09:34:27.691Z,102334.38
2023-02-19T09:37:00.111Z,102337.91
2023-02-19T09:39:26.502Z,102348.97
2023-02-19T09:41:57.973Z,102347.31
2023-02-19T09:44:34.623Z,102354.38
2023-02-19T09:47:03.497Z,102367.91
2023-02-19T09:49:37.639Z,102374.16
2023-02-19T09:52:19.813Z,102368.16
2023-02-19T09:54:47.300Z,102378.38
2023-02-19T09:57:17.560Z,102382.31
2023-02-19T10:00:09.651Z,102388.78
2023-02-19T10:02:37.329Z,102388.78
2023-02-19T10:05:11.262Z,102387.97
2023-02-19T10:07:41.877Z,102399.00
2023-02-19T10:10:13.989Z,102412.53
2023-02-19T10:12:50.509Z,102425.91
2023-02-19T10:15:23.119Z,102429.50
2023-02-19T10:17:49.480Z,102428.50
2023-02-19T10:20:19.057Z,102441.03
2023-02-19T10:22:45.821Z,102451.06
2023-02-19T10:25:16.569Z,102455.88
2023-02-19T10:27:44.024Z,102451.28
2023-02-19T10:30:20.724Z,102459.00
2023-02-19T10:33:08.817Z,102467.56
2023-02-19T10:35:39.053Z,102467.56
2023-02-19T10:38:06.842Z,102471.31
2023-02-19T10:40:33.375Z,102465.66
2023-02-19T10:43:03.958Z,102467.75
2023-02-19T10:45:47.838Z,102469.66
2023-02-19T10:48:28.622Z,102471.31
2023-02-19T10:50:59.985Z,102475.44
2023-02-19T10:53:41.745Z,102481.69
2023-02-19T10:56:12.817Z,102472.97
2023-02-19T10:58:42.301Z,102478.38
2023-02-19T11:01:22.556Z,102467.56
2023-02-19T11:04:12.928Z,102462.41
2023-02-19T11:06:40.019Z,102455.94
2023-02-19T11:09:06.655Z,102454.28
2023-02-19T11:11:33.734Z,102464.66
2023-02-19T11:14:05.108Z,102462.16
2023-02-19T11:16:41.249Z,102468.19
2023-02-19T11:19:31.129Z,102479.84
2023-02-19T11:22:00.194Z,102470.09
2023-02-19T11:24:37.164Z,102469.25
2023-02-19T11:27:06.986Z,102482.56
2023-02-19T11:29:37.258Z,102485.88
2023-02-19T11:32:27.968Z,102482.94
2023-02-19T11:35:14.494Z,102479.00
2023-02-19T11:37:56.163Z,102485.00
2023-02-19T11:40:34.587Z,102492.94
2023-02-19T11:43:23.245Z,102497.94
2023-02-19T11:46:06.991Z,102496.28
2023-02-19T11:48:54.955Z,102500.63
2023-02-19T11:51:58.548Z,102497.50
2023-02-19T11:54:43.785Z,102487.50
2023-02-19T11:57:28.974Z,102483.75
2023-02-19T12:00:03.113Z,102487.09
2023-02-19T12:02:49.400Z,102490.88
2023-02-19T12:05:31.049Z,102490.13
2023-02-19T12:08:38.956Z,102492.84
2023-02-19T12:11:34.788Z,102497.00
2023-02-19T12:14:13.166Z,102494.31
2023-02-19T12:16:59.206Z,102504.50
2023-02-19T12:19:44.600Z,102500.56
2023-02-19T12:22:32.446Z,102495.59
2023-02-19T12:25:24.121Z,102503.94
2023-02-19T12:28:13.876Z,102502.03
2023-02-19T12:31:04.433Z,102492.50
2023-02-19T12:33:47.470Z,102498.09
2023-02-19T12:36:28.688Z,102503.50
2023-02-19T12:39:05.536Z,102516.81
2023-02-19T12:41:47.830Z,102515.16
2023-02-19T12:44:23.504Z,102513.50
2023-02-19T12:46:56.491Z,102518.28
2023-02-19T12:49:30.374Z,102525.56
2023-02-19T12:52:25.766Z,102535.97
2023-02-19T12:54:56.198Z,102535.16
2023-02-19T12:57:36.858Z,102538.88
2023-02-19T13:00:19.001Z,102545.53
2023-02-19T13:02:50.509Z,102563.19
2023-02-19T13:05:46.675Z,102557.16
2023-02-19T13:08:19.607Z,102552.84
2023-02-19T13:10:51.426Z,102550.13
2023-02-19T13:13:28.059Z,102561.53
2023-02-19T13:16:00.371Z,102562.78
2023-02-19T13:18:34.050Z,102577.75
2023-02-19T13:21:01.576Z,102589.16
2023-02-19T13:23:53.560Z,102582.09
2023-02-19T13:26:23.720Z,102592.13
2023-02-19T13:29:00.230Z,102597.94
2023-02-19T13:31:56.055Z,102593.34
2023-02-19T13:34:51.408Z,102585.44
2023-02-19T13:37:18.770Z,102586.28
2023-02-19T13:39:53.967Z,102595.63
2023-02-19T13:42:27.123Z,102590.03
2023-02-19T13:45:30.977Z,102599.19
2023-02-19T13:48:25.774Z,102605.19
2023-02-19T13:51:19.558Z,102615.16
2023-02-19T13:53:56.498Z,102611.41
2023-02-19T13:56:34.993Z,102612.91
2023-02-19T13:59:23.191Z,102604.16
2023-02-19T14:01:49.569Z,102614.75
2023-02-19T14:04:25.273Z,102607.91
2023-02-19T14:07:03.618Z,102609.56
2023-02-19T14:09:36.011Z,102609.97
2023-02-19T14:12:03.955Z,102616.63
2023-02-19T14:14:51.693Z,102622.84
2023-02-19T14:17:34.807Z,102620.75
2023-02-19T14:20:11.617Z,102607.06
2023-02-19T14:22:52.029Z,102609.53
2023-02-19T14:25:27.853Z,102603.94
2023-02-19T14:28:00.468Z,102609.13
2023-02-19T14:30:28.045Z,102594.56
2023-02-19T14:33:09.826Z,102596.22
2023-02-19T14:35:42.583Z,102597.91
2023-02-19T14:38:20.231Z,102582.31
2023-02-19T14:40:48.069Z,102589.59
2023-02-19T14:43:17.801Z,102573.56
2023-02-19T14:45:52.060Z,102573.38
2023-02-19T14:48:23.853Z,102566.72
2023-02-19T14:50:54.841Z,102566.72
2023-02-19T14:53:22.979Z,102569.84
2023-02-19T14:55:50.880Z,102571.72
2023-02-19T14:58:33.745Z,102560.91
2023-02-19T15:01:00.293Z,102558.41
2023-02-19T15:03:32.541Z,102556.72
2023-02-19T15:06:11.506Z,102549.25
2023-02-19T15:08:43.919Z,102557.16
2023-02-19T15:11:19.016Z,102552.16
2023-02-19T15:13:51.147Z,102550.06
2023-02-19T15:16:25.526Z,102564.44
2023-02-19T15:18:53.624Z,102578.75
2023-02-19T15:21:27.722Z,102580.84
2023-02-19T15:24:03.888Z,102583.53
2023-02-19T15:26:42.722Z,102598.53
2023-02-19T15:29:11.701Z,102603.31
2023-02-19T15:31:46.258Z,102613.28
2023-02-19T15:34:25.561Z,102618.69
2023-02-19T15:36:57.513Z,102627.00
2023-02-19T15:39:35.060Z,102623.69
2023-02-19T15:42:05.107Z,102632.81
2023-02-19T15:44:43.634Z,102623.06
2023-02-19T15:47:22.270Z,102626.78
2023-02-19T15:49:54.790Z,102628.69
2023-02-19T15:52:29.014Z,102622.03
2023-02-19T15:55:04.807Z,102608.09
2023-02-19T15:57:37.394Z,102598.75
2023-02-19T16:00:15.863Z,102603.97
2023-02-19T16:02:42.651Z,102625.97
2023-02-19T16:05:23.843Z,102622.66
2023-02-19T16:08:06.894Z,102629.91
2023-02-19T16:10:33.565Z,102642.78
2023-02-19T16:13:02.098Z,102652.78
2023-02-19T16:15:30.515Z,102653.19
2023-02-19T16:17:58.311Z,102654.66
2023-02-19T16:20:30.938Z,102662.94
2023-02-19T16:23:20.189Z,102668.75
2023-02-19T16:25:47.680Z,102659.81
2023-02-19T16:28:22.017Z,102659.19
2023-02-19T16:31:00.132Z,102662.31
2023-02-19T16:33:26.462Z,102663.13
2023-02-19T16:35:52.909Z,102666.03
2023-02-19T16:38:21.018Z,102668.94
2023-02-19T16:40:54.320Z,102668.13
2023-02-19T16:43:27.423Z,102670.19
2023-02-19T16:46:02.705Z,102662.50
2023-02-19T16:48:29.137Z,102663.53
2023-02-19T16:50:55.864Z,102678.88
2023-02-19T16:53:28.844Z,102688.00
2023-02-19T16:55:55.399Z,102694.25
2023-02-19T16:58:21.869Z,102692.78
2023-02-19T17:00:48.267Z,102683.66
2023-02-19T17:03:18.823Z,102675.56
2023-02-19T17:05:45.676Z,102662.28
2023-02-19T17:08:33.945Z,102650.22
2023-02-19T17:11:02.292Z,102672.84
2023-02-19T17:13:29.690Z,102666.81
2023-02-19T17:15:57.250Z,102676.78
2023-02-19T17:18:23.798Z,102674.28
2023-02-19T17:20:55.054Z,102674.69
2023-02-19T17:23:23.553Z,102678.44
2023-02-19T17:25:52.854Z,102686.53
2023-02-19T17:28:19.410Z,102690.25
2023-02-19T17:30:45.831Z,102690.47
2023-02-19T17:33:12.289Z,102695.03
2023-02-19T17:35:38.748Z,102695.03
2023-02-19T17:38:09.474Z,102694.22
2023-02-19T17:40:36.866Z,102700.81
2023-02-19T17:43:03.848Z,102706.22
2023-02-19T17:45:30.457Z,102711.63
2023-02-19T17:47:56.926Z,102712.88
2023-02-19T17:50:27.070Z,102720.97
2023-02-19T17:52:53.423Z,102732.78
2023-02-19T17:55:19.798Z,102731.94
2023-02-19T17:57:47.538Z,102720.53
2023-02-19T18:00:32.932Z,102721.56
2023-02-19T18:02:59.348Z,102725.28
2023-02-19T18:05:25.724Z,102727.34
2023-02-19T18:07:52.121Z,102721.94
2023-02-19T18:10:20.962Z,102723.63
2023-02-19T18:12:47.414Z,102711.38
2023-02-19T18:15:23.173Z,102704.31
2023-02-19T18:17:49.894Z,102702.44
2023-02-19T18:20:20.369Z,102700.75
2023-02-19T18:22:46.842Z,102704.50
2023-02-19T18:25:13.468Z,102702.81
2023-02-19T18:27:39.870Z,102692.03
2023-02-19T18:30:06.954Z,102690.38
2023-02-19T18:32:33.366Z,102697.84
2023-02-19T18:35:00.238Z,102692.84
2023-02-19T18:37:30.006Z,102692.19
2023-02-19T18:39:58.126Z,102692.81
2023-02-19T18:42:24.503Z,102702.53
2023-02-19T18:44:52.486Z,102699.41
2023-02-19T18:47:20.655Z,102702.72
2023-02-19T18:49:48.746Z,102702.06
2023-02-19T18:52:16.301Z,102693.75
2023-02-19T18:54:43.318Z,102695.16
2023-02-19T18:57:09.716Z,102698.25
2023-02-19T18:59:39.566Z,102702.38
2023-02-19T19:02:09.218Z,102709.38
2023-02-19T19:04:39.828Z,102698.81
2023-02-19T19:07:10.757Z,102693.16
2023-02-19T19:09:40.326Z,102710.13
2023-02-19T19:12:06.862Z,102707.81
2023-02-19T19:14:57.013Z,102706.53
2023-02-19T19:17:26.626Z,102710.66
2023-02-19T19:19:52.996Z,102711.03
2023-02-19T19:22:27.396Z,102716.81
2023-02-19T19:24:58.923Z,102722.81
2023-02-19T19:27:29.382Z,102723.19
2023-02-19T19:29:55.734Z,102723.38
2023-02-19T19:32:22.171Z,102734.53
2023-02-19T19:34:48.581Z,102732.88
2023-02-19T19:37:16.057Z,102728.72
2023-02-19T19:39:47.473Z,102726.59
2023-02-19T19:42:25.012Z,102732.34
2023-02-19T19:44:51.651Z,102723.63
2023-02-19T19:47:33.497Z,102726.72
2023-02-19T21:17:04.180Z,102659.53
2023-02-19T21:19:30.545Z,102666.81
2023-02-19T21:21:57.380Z,102671.34
2023-02-19T21:24:23.731Z,102668.63
2023-02-19T21:26:50.335Z,102673.47
2023-02-19T21:29:19.216Z,102672.63
2023-02-19T21:31:57.208Z,102669.94
2023-02-19T21:34:27.075Z,102668.91
2023-02-19T21:36:54.614Z,102676.16
2023-02-19T21:39:47.024Z,102678.66
2023-02-19T21:42:13.411Z,102679.66
2023-02-19T21:44:41.667Z,102693.78
2023-02-19T21:47:12.278Z,102680.53
2023-02-19T21:49:38.796Z,102680.69
2023-02-19T21:52:09.416Z,102678.28
2023-02-19T21:54:38.992Z,102679.75
2023-02-19T21:57:45.934Z,102680.75
2023-02-19T22:00:13.050Z,102684.31
2023-02-19T22:02:39.474Z,102677.91
2023-02-19T22:05:20.501Z,102673.16
2023-02-19T22:07:47.819Z,102673.72
2023-02-19T22:10:34.347Z,102669.81
2023-02-19T22:13:00.749Z,102669.81
2023-02-19T22:15:27.127Z,102680.59
2023-02-19T22:17:54.552Z,102681.22
2023-02-19T22:20:29.188Z,102678.91
2023-02-19T22:22:55.647Z,102670.84
2023-02-19T22:25:22.079Z,102680.59
2023-02-19T22:27:48.955Z,102669.81
2023-02-19T22:30:16.156Z,102662.13
2023-02-19T22:32:42.695Z,102656.53
2023-02-19T22:35:10.143Z,102655.16
2023-02-19T22:37:41.593Z,102643.34
2023-02-19T22:40:08.286Z,102651.63
2023-02-19T22:42:36.065Z,102647.94
2023-02-19T22:45:18.915Z,102649.59
2023-02-19T22:47:50.422Z,102644.22
2023-02-19T22:50:22.374Z,102648.75
2023-02-19T22:52:55.482Z,102636.78
2023-02-19T22:55:22.071Z,102641.91
2023-02-19T22:57:59.718Z,102636.31
2023-02-19T23:00:28.170Z,102632.97
2023-02-19T23:03:00.672Z,102635.88
2023-02-19T23:05:38.240Z,102621.41
2023-02-19T23:08:15.253Z,102618.72
2023-02-19T23:10:41.721Z,102613.97
2023-02-19T23:13:10.871Z,102618.50
2023-02-19T23:15:37.385Z,102601.16
2023-02-19T23:18:06.238Z,102611.53
2023-02-19T23:20:32.646Z,102616.53
2023-02-19T23:22:59.201Z,102605.78
2023-02-19T23:25:43.103Z,102614.66
2023-02-19T23:28:09.654Z,102618.22
2023-02-19T23:30:37.243Z,102617.81
2023-02-19T23:33:03.840Z,102613.91
2023-02-19T23:35:32.413Z,102621.59
2023-02-19T23:37:59.260Z,102626.97
2023-02-19T23:40:25.658Z,102625.78
2023-02-19T23:43:46.102Z,102632.44
2023-02-19T23:46:17.887Z,102624.56
2023-02-19T23:48:59.718Z,102620.84
2023-02-19T23:51:26.222Z,102604.50
2023-02-19T23:54:18.573Z,102596.44
2023-02-19T23:56:53.095Z,102596.03
2023-02-19T23:59:39.809Z,102584.25
